Paris, France
Current Conditions -  °F | °C
As of 5:00 PM on Tuesday 21 Oct 2014 (Local Time) from LFPB Reporting Station
Broken Clouds Broken Clouds  
Wind Chill: 57°   Ceiling: 5400
Heat Index: 57°   Visibility: 6mi
Dew Point: 39°   Wind: 22mph
Humidity: 51%   Direction: 300°WNW
Pressure: 29.88"   Gusts: 36mph
Location:  48.86°N, 2.35°E
Report Text: LFPB 211500Z AUTO 30019G31KT 270V350 9999 FEW032 SCT046BKN054 14/04 Q1012
Loading
Personal Weather Stations






























Interactive Weather Map
Tropical Storm Tracking
New forecast layout! Learn more

10-Day Weather Forecast

Advertisements
Track Severe Weather on mobile